createdAt,value
2022-11-10T00:00:08.992Z,1.90
2022-11-10T00:02:56.112Z,3.23
2022-11-10T00:05:43.052Z,4.33
2022-11-10T00:08:29.806Z,9.63
2022-11-10T00:11:18.185Z,2.00
2022-11-10T00:14:22.724Z,1.00
2022-11-10T00:17:11.415Z,4.30
2022-11-10T00:19:58.321Z,1.73
2022-11-10T00:22:45.103Z,3.97
2022-11-10T00:25:34.224Z,3.17
2022-11-10T00:28:22.279Z,4.10
2022-11-10T00:31:10.006Z,1.43
2022-11-10T00:33:57.284Z,5.07
2022-11-10T00:36:43.912Z,2.17
2022-11-10T00:39:30.573Z,3.40
2022-11-10T00:42:17.587Z,3.40
2022-11-10T00:45:07.029Z,4.73
2022-11-10T00:47:53.975Z,6.50
2022-11-10T00:50:40.964Z,1.87
2022-11-10T00:53:28.339Z,2.10
2022-11-10T00:56:15.077Z,1.37
2022-11-10T00:59:02.079Z,1.73
2022-11-10T01:01:50.152Z,3.07
2022-11-10T01:04:37.459Z,1.60
2022-11-10T01:07:24.295Z,2.30
2022-11-10T01:10:11.535Z,2.37
2022-11-10T01:12:58.633Z,1.50
2022-11-10T01:15:45.641Z,0.63
2022-11-10T01:18:34.033Z,4.57
2022-11-10T01:21:22.324Z,1.13
2022-11-10T01:24:09.398Z,2.10
2022-11-10T01:26:56.426Z,1.80
2022-11-10T01:29:43.392Z,1.50
2022-11-10T01:32:30.308Z,4.63
2022-11-10T01:35:18.734Z,3.87
2022-11-10T01:38:05.700Z,2.33
2022-11-10T01:40:52.561Z,1.07
2022-11-10T01:43:39.805Z,3.30
2022-11-10T01:46:27.561Z,1.77
2022-11-10T01:49:17.407Z,2.67
2022-11-10T01:52:09.673Z,2.93
2022-11-10T01:54:56.945Z,2.37
2022-11-10T01:57:44.455Z,3.27
2022-11-10T02:00:31.136Z,1.77
2022-11-10T02:03:22.005Z,0.73
2022-11-10T02:06:10.182Z,3.37
2022-11-10T02:08:59.626Z,1.43
2022-11-10T02:11:47.818Z,1.97
2022-11-10T02:14:34.928Z,2.73
2022-11-10T02:17:21.834Z,1.60
2022-11-10T02:20:12.479Z,1.50
2022-11-10T02:23:00.862Z,1.47
2022-11-10T02:25:47.699Z,5.93
2022-11-10T02:28:36.541Z,1.87
2022-11-10T02:31:23.557Z,3.23
2022-11-10T02:34:10.222Z,1.77
2022-11-10T02:36:57.158Z,2.67
2022-11-10T02:39:45.452Z,8.53
2022-11-10T02:42:32.476Z,2.23
2022-11-10T02:45:19.355Z,3.70
2022-11-10T02:48:06.466Z,1.33
2022-11-10T02:50:54.313Z,2.73
2022-11-10T02:53:41.281Z,6.30
2022-11-10T02:56:29.842Z,3.43
2022-11-10T02:59:16.926Z,2.30
2022-11-10T03:02:04.239Z,4.90
2022-11-10T03:04:51.226Z,4.17
2022-11-10T03:07:38.531Z,1.17
2022-11-10T03:10:26.147Z,5.73
2022-11-10T03:13:14.363Z,1.60
2022-11-10T03:16:01.287Z,1.40
2022-11-10T03:18:48.127Z,1.80
2022-11-10T03:21:35.200Z,1.13
2022-11-10T03:24:21.993Z,1.80
2022-11-10T03:27:08.790Z,2.80
2022-11-10T03:29:57.057Z,5.13
2022-11-10T03:32:43.829Z,3.90
2022-11-10T03:35:31.037Z,1.70
2022-11-10T03:38:19.408Z,4.87
2022-11-10T03:41:21.808Z,2.57
2022-11-10T03:44:09.025Z,1.07
2022-11-10T03:46:57.292Z,3.33
2022-11-10T03:49:44.381Z,4.80
2022-11-10T03:52:31.342Z,3.20
2022-11-10T03:55:19.562Z,1.40
2022-11-10T03:58:06.766Z,2.13
2022-11-10T04:00:54.525Z,1.23
2022-11-10T04:03:46.205Z,2.30
2022-11-10T04:06:53.406Z,4.23
2022-11-10T04:09:40.141Z,2.17
2022-11-10T04:12:44.670Z,1.80
2022-11-10T04:15:43.545Z,3.13
2022-11-10T04:18:30.574Z,4.73
2022-11-10T04:21:18.769Z,3.30
2022-11-10T04:24:05.982Z,5.27
2022-11-10T04:26:52.682Z,4.47
2022-11-10T04:29:40.757Z,2.23
2022-11-10T04:32:27.893Z,2.20
2022-11-10T04:35:15.041Z,2.27
2022-11-10T04:38:03.686Z,2.30
2022-11-10T04:40:50.658Z,1.47
2022-11-10T04:43:37.953Z,2.60
2022-11-10T04:46:27.192Z,2.67
2022-11-10T04:49:14.328Z,7.50
2022-11-10T04:52:01.230Z,1.73
2022-11-10T04:54:49.758Z,1.50
2022-11-10T04:57:36.748Z,5.03
2022-11-10T05:00:25.047Z,2.17
2022-11-10T05:03:13.708Z,3.13
2022-11-10T05:06:00.766Z,6.87
2022-11-10T05:08:48.609Z,4.30
2022-11-10T05:11:37.680Z,2.07
2022-11-10T05:14:24.707Z,3.40
2022-11-10T05:17:11.382Z,1.40
2022-11-10T05:19:58.268Z,2.77
2022-11-10T05:23:07.171Z,2.20
2022-11-10T05:25:54.283Z,2.40
2022-11-10T05:28:44.068Z,1.40
2022-11-10T05:31:30.844Z,1.80
2022-11-10T05:34:18.298Z,5.70
2022-11-10T05:37:05.348Z,2.57
2022-11-10T05:39:52.112Z,1.23
2022-11-10T05:42:44.532Z,1.37
2022-11-10T05:45:32.978Z,3.63
2022-11-10T05:48:20.076Z,3.67
2022-11-10T05:51:07.214Z,4.97
2022-11-10T05:53:54.165Z,1.50
2022-11-10T05:56:41.097Z,2.87
2022-11-10T05:59:28.007Z,4.57
2022-11-10T06:02:16.732Z,2.47
2022-11-10T06:05:03.493Z,2.40
2022-11-10T06:07:50.497Z,3.90
2022-11-10T06:10:38.146Z,1.67
2022-11-10T06:13:25.648Z,2.27
2022-11-10T06:16:14.059Z,4.73
2022-11-10T06:19:02.961Z,2.43
2022-11-10T06:21:52.815Z,1.23
2022-11-10T06:24:42.526Z,2.77
2022-11-10T06:27:29.492Z,17.27
2022-11-10T06:30:17.268Z,87.17
2022-11-10T06:33:04.966Z,45.30
2022-11-10T06:35:54.034Z,72.23
2022-11-10T06:38:40.707Z,70.67
2022-11-10T06:41:27.827Z,135.93
2022-11-10T06:44:14.904Z,179.03
2022-11-10T06:47:01.443Z,161.83
2022-11-10T06:49:48.252Z,76.23
2022-11-10T06:52:36.687Z,104.70
2022-11-10T06:55:24.121Z,112.83
2022-11-10T06:58:11.610Z,33.17
2022-11-10T07:01:01.043Z,41.00
2022-11-10T07:04:05.447Z,46.67
2022-11-10T07:06:54.857Z,30.60
2022-11-10T07:09:43.141Z,36.83
2022-11-10T07:12:29.858Z,56.07
2022-11-10T07:15:16.974Z,54.83
2022-11-10T07:18:05.324Z,23.40
2022-11-10T07:20:51.974Z,42.63
2022-11-10T07:23:38.785Z,24.83
2022-11-10T07:26:27.120Z,15.20
2022-11-10T07:29:14.111Z,44.70
2022-11-10T07:32:01.299Z,56.93
2022-11-10T07:34:48.374Z,45.17
2022-11-10T07:37:35.759Z,44.77
2022-11-10T07:40:22.494Z,5.07
2022-11-10T07:43:10.831Z,4.70
2022-11-10T07:45:57.752Z,3.60
2022-11-10T07:48:44.641Z,1.80
2022-11-10T07:51:31.455Z,1.92
2022-11-10T07:54:18.788Z,1.27
2022-11-10T07:57:05.642Z,1.10
2022-11-10T07:59:57.974Z,0.80
2022-11-10T08:02:45.067Z,0.95
2022-11-10T08:05:32.109Z,4.43
2022-11-10T08:08:19.831Z,1.55
2022-11-10T08:11:07.137Z,2.47
2022-11-10T08:13:53.951Z,2.30
2022-11-10T08:16:42.177Z,2.22
2022-11-10T08:19:29.312Z,27.33
2022-11-10T08:22:16.226Z,5.50
2022-11-10T08:25:03.216Z,13.23
2022-11-10T08:27:50.343Z,12.60
2022-11-10T08:30:38.374Z,24.48
2022-11-10T08:33:26.871Z,10.57
2022-11-10T08:36:14.391Z,7.05
2022-11-10T08:39:01.283Z,15.27
2022-11-10T08:41:49.019Z,5.18
2022-11-10T08:44:35.951Z,3.85
2022-11-10T08:47:23.636Z,3.95
2022-11-10T08:50:12.216Z,7.70
2022-11-10T08:53:01.718Z,9.68
2022-11-10T08:55:48.821Z,7.25
2022-11-10T08:58:47.243Z,15.23
2022-11-10T09:01:37.102Z,11.65
2022-11-10T09:04:24.424Z,11.40
2022-11-10T09:07:13.116Z,6.15
2022-11-10T09:10:08.157Z,3.65
2022-11-10T09:12:55.081Z,7.20
2022-11-10T09:15:42.629Z,14.30
2022-11-10T09:18:30.326Z,33.85
2022-11-10T09:21:17.341Z,23.35
2022-11-10T09:24:06.432Z,2.58
2022-11-10T09:26:53.330Z,17.50
2022-11-10T09:29:40.341Z,4.60
2022-11-10T09:32:27.257Z,28.63
2022-11-10T09:35:14.633Z,6.17
2022-11-10T09:38:01.775Z,5.70
2022-11-10T09:41:02.845Z,2.73
2022-11-10T09:43:58.904Z,3.10
2022-11-10T09:46:50.898Z,3.40
2022-11-10T09:49:41.572Z,4.13
2022-11-10T09:52:33.168Z,6.32
2022-11-10T09:55:29.667Z,2.42
2022-11-10T09:58:19.734Z,1.58
2022-11-10T10:01:23.407Z,1.77
2022-11-10T10:04:24.210Z,2.38
2022-11-10T10:07:15.657Z,3.85
2022-11-10T10:10:17.144Z,2.83
2022-11-10T10:13:24.419Z,1.33
2022-11-10T10:16:19.063Z,3.70
2022-11-10T10:19:15.667Z,1.77
2022-11-10T10:22:43.521Z,2.88
2022-11-10T10:25:32.639Z,2.28
2022-11-10T10:28:30.092Z,1.02
2022-11-10T10:31:21.804Z,2.35
2022-11-10T10:34:15.096Z,5.70
2022-11-10T10:37:02.308Z,5.65
2022-11-10T10:39:51.001Z,1.23
2022-11-10T10:42:38.877Z,1.83
2022-11-10T10:45:29.950Z,4.43
2022-11-10T10:48:26.957Z,1.48
2022-11-10T10:51:29.923Z,2.25
2022-11-10T10:54:28.895Z,2.28
2022-11-10T10:57:24.240Z,5.55
2022-11-10T11:00:21.358Z,1.95
2022-11-10T11:03:20.732Z,1.15
2022-11-10T11:06:19.426Z,1.63
2022-11-10T11:09:09.930Z,4.75
2022-11-10T11:12:05.713Z,4.15
2022-11-10T11:14:53.933Z,2.22
2022-11-10T11:17:54.922Z,2.47
2022-11-10T11:20:52.255Z,2.22
2022-11-10T11:24:04.780Z,4.50
2022-11-10T11:26:58.125Z,2.90
2022-11-10T11:30:03.507Z,2.78
2022-11-10T11:33:12.361Z,3.58
2022-11-10T11:36:06.406Z,3.30
2022-11-10T11:38:59.528Z,3.95
2022-11-10T11:41:56.197Z,2.08
2022-11-10T11:44:56.553Z,3.28
2022-11-10T11:48:04.349Z,2.40
2022-11-10T11:50:57.699Z,2.20
2022-11-10T11:54:01.009Z,8.68
2022-11-10T11:56:51.179Z,0.43
2022-11-10T12:00:01.048Z,1.05
2022-11-10T12:03:31.191Z,1.58
2022-11-10T12:06:35.857Z,2.50
2022-11-10T12:09:31.951Z,4.43
2022-11-10T12:12:56.561Z,0.90
2022-11-10T12:15:53.444Z,0.68
2022-11-10T12:18:49.925Z,1.15
2022-11-10T12:21:43.240Z,2.30
2022-11-10T12:24:45.521Z,2.72
2022-11-10T12:27:35.787Z,0.80
2022-11-10T12:30:23.026Z,4.57
2022-11-10T12:33:18.273Z,1.77
2022-11-10T12:36:09.345Z,4.13
2022-11-10T12:39:02.737Z,2.55
2022-11-10T12:41:55.756Z,3.50
2022-11-10T12:45:03.885Z,11.13
2022-11-10T12:47:50.900Z,10.10
2022-11-10T12:50:52.065Z,2.35
2022-11-10T12:53:41.937Z,2.53
2022-11-10T12:56:33.714Z,1.88
2022-11-10T12:59:31.505Z,4.93
2022-11-10T13:02:29.807Z,3.10
2022-11-10T13:05:30.333Z,2.28
2022-11-10T13:08:37.705Z,1.58
2022-11-10T13:11:29.978Z,2.05
2022-11-10T13:14:26.007Z,4.47
2022-11-10T13:17:53.052Z,1.83
2022-11-10T13:20:52.927Z,4.88
2022-11-10T13:24:20.753Z,1.38
2022-11-10T13:27:12.790Z,3.70
2022-11-10T13:30:00.851Z,1.38
2022-11-10T13:32:48.971Z,1.48
2022-11-10T13:35:56.325Z,1.52
2022-11-10T13:38:44.504Z,1.80
2022-11-10T13:41:34.417Z,2.92
2022-11-10T13:44:24.654Z,3.80
2022-11-10T13:47:50.373Z,2.03
2022-11-10T13:50:50.955Z,7.90
2022-11-10T13:53:52.101Z,2.13
2022-11-10T13:56:53.496Z,3.33
2022-11-10T13:59:49.004Z,1.90
2022-11-10T14:02:57.819Z,2.73
2022-11-10T14:06:10.143Z,2.33
2022-11-10T14:09:04.110Z,2.80
2022-11-10T14:11:54.703Z,7.03
2022-11-10T14:14:51.399Z,1.90
2022-11-10T14:17:44.235Z,5.80
2022-11-10T14:20:36.559Z,2.00
2022-11-10T14:23:30.508Z,4.93
2022-11-10T14:26:25.773Z,1.73
2022-11-10T14:29:38.555Z,1.83
2022-11-10T14:32:27.047Z,4.10
2022-11-10T14:35:22.673Z,1.20
2022-11-10T14:38:21.260Z,4.43
2022-11-10T14:41:19.187Z,2.93
2022-11-10T14:44:08.368Z,4.77
2022-11-10T14:46:55.868Z,1.33
2022-11-10T14:49:43.954Z,1.70
2022-11-10T14:52:30.978Z,1.23
2022-11-10T14:55:21.058Z,1.53
2022-11-10T14:58:14.996Z,1.80
2022-11-10T15:01:03.636Z,2.47
2022-11-10T15:03:50.950Z,1.43
2022-11-10T15:06:41.895Z,0.67
2022-11-10T15:09:33.282Z,4.20
2022-11-10T15:12:22.775Z,1.37
2022-11-10T15:15:21.573Z,1.43
2022-11-10T15:18:23.848Z,3.23
2022-11-10T15:21:13.847Z,2.57
2022-11-10T15:24:04.197Z,1.50
2022-11-10T15:26:51.365Z,1.00
2022-11-10T15:29:38.678Z,1.37
2022-11-10T15:32:33.812Z,1.20
2022-11-10T15:35:30.720Z,5.30
2022-11-10T15:38:32.677Z,2.30
2022-11-10T15:41:27.426Z,2.47
2022-11-10T15:44:19.906Z,1.80
2022-11-10T15:47:07.828Z,3.00
2022-11-10T15:49:57.577Z,12.33
2022-11-10T15:52:44.628Z,18.40
2022-11-10T15:55:34.519Z,7.40
2022-11-10T15:58:23.554Z,6.37
2022-11-10T16:01:13.468Z,8.17
2022-11-10T16:04:00.598Z,10.70
2022-11-10T16:06:49.106Z,8.60
2022-11-10T16:09:36.420Z,8.33
2022-11-10T16:12:24.724Z,7.13
2022-11-10T16:15:19.575Z,5.00
2022-11-10T16:18:12.801Z,5.03
2022-11-10T16:20:59.852Z,4.40
2022-11-10T16:23:49.877Z,11.73
2022-11-10T16:26:37.118Z,11.10
2022-11-10T16:29:23.976Z,3.70
2022-11-10T16:32:12.223Z,2.10
2022-11-10T16:35:00.265Z,3.03
2022-11-10T16:37:47.361Z,3.43
2022-11-10T16:40:44.976Z,3.63
2022-11-10T16:43:33.422Z,7.30
2022-11-10T16:46:22.664Z,5.07
2022-11-10T16:49:23.946Z,2.23
2022-11-10T16:52:16.928Z,2.60
2022-11-10T16:55:04.081Z,3.13
2022-11-10T16:57:52.449Z,3.63
2022-11-10T17:00:40.454Z,3.63
2022-11-10T17:03:32.681Z,3.40
2022-11-10T17:06:21.587Z,3.63
2022-11-10T17:09:14.475Z,6.47
2022-11-10T17:12:34.561Z,4.80
2022-11-10T17:15:23.187Z,5.40
2022-11-10T17:18:12.608Z,5.27
2022-11-10T17:20:59.672Z,4.33
2022-11-10T17:24:34.496Z,7.20
2022-11-10T17:27:33.965Z,6.57
2022-11-10T17:30:26.012Z,6.87
2022-11-10T17:33:13.758Z,7.77
2022-11-10T17:36:02.411Z,5.80
2022-11-10T17:38:49.631Z,7.40
2022-11-10T17:41:36.520Z,6.63
2022-11-10T17:44:23.352Z,6.63
2022-11-10T17:47:11.805Z,5.47
2022-11-10T17:49:59.227Z,6.67
2022-11-10T17:52:46.546Z,5.60
2022-11-10T17:55:34.609Z,14.60
2022-11-10T17:58:22.068Z,7.17
2022-11-10T18:01:15.465Z,6.43
2022-11-10T18:04:04.264Z,8.50
2022-11-10T18:06:51.268Z,5.80
2022-11-10T18:10:00.677Z,7.87
2022-11-10T18:12:51.602Z,8.87
2022-11-10T18:15:54.370Z,8.17
2022-11-10T18:18:45.904Z,12.43
2022-11-10T18:21:36.092Z,11.03
2022-11-10T18:24:37.041Z,11.53
2022-11-10T18:27:34.106Z,7.57
2022-11-10T18:30:21.721Z,8.17
2022-11-10T18:33:09.272Z,9.40
2022-11-10T18:36:03.614Z,8.27
2022-11-10T18:38:57.367Z,7.33
2022-11-10T18:41:57.278Z,6.27
2022-11-10T18:44:48.152Z,7.37
2022-11-10T18:47:43.563Z,6.80
2022-11-10T18:50:41.218Z,5.53
2022-11-10T18:53:38.530Z,7.87
2022-11-10T18:56:32.156Z,7.23
2022-11-10T18:59:24.093Z,9.20
2022-11-10T19:02:17.387Z,6.13
2022-11-10T19:05:14.413Z,8.70
2022-11-10T19:08:04.001Z,6.57
2022-11-10T19:10:53.956Z,9.67
2022-11-10T19:13:45.805Z,9.40
2022-11-10T19:16:38.366Z,9.77
2022-11-10T19:19:30.748Z,6.80
2022-11-10T19:22:18.018Z,5.43
2022-11-10T19:25:09.099Z,4.77
2022-11-10T19:27:57.413Z,4.80
2022-11-10T19:30:45.766Z,2.93
2022-11-10T19:33:35.706Z,3.17
2022-11-10T19:36:26.869Z,4.30
2022-11-10T19:39:30.417Z,4.07
2022-11-10T19:42:18.123Z,4.33
2022-11-10T19:45:05.566Z,2.63
2022-11-10T19:47:54.259Z,5.00
2022-11-10T19:50:45.217Z,2.73
2022-11-10T19:53:36.609Z,4.47
2022-11-10T19:56:26.373Z,3.87
2022-11-10T19:59:22.838Z,9.07
2022-11-10T20:02:13.464Z,6.47
2022-11-10T20:05:21.592Z,4.50
2022-11-10T20:08:12.765Z,3.50
2022-11-10T20:11:01.907Z,2.97
2022-11-10T20:13:54.225Z,2.43
2022-11-10T20:16:42.047Z,3.27
2022-11-10T20:19:28.933Z,5.70
2022-11-10T20:22:17.234Z,7.73
2022-11-10T20:25:05.232Z,3.23
2022-11-10T20:27:53.491Z,4.97
2022-11-10T20:30:44.385Z,2.13
2022-11-10T20:33:32.966Z,2.23
2022-11-10T20:36:23.077Z,1.93
2022-11-10T20:39:11.880Z,2.60
2022-11-10T20:41:58.922Z,9.40
2022-11-10T20:44:45.785Z,1.20
2022-11-10T20:47:34.081Z,2.93
2022-11-10T20:50:24.366Z,4.63
2022-11-10T20:53:12.162Z,2.03
2022-11-10T20:56:02.714Z,3.60
2022-11-10T20:58:52.405Z,2.80
2022-11-10T21:01:39.400Z,2.10
2022-11-10T21:04:26.543Z,2.30
2022-11-10T21:07:13.550Z,3.23
2022-11-10T21:10:00.944Z,3.07
2022-11-10T21:12:51.773Z,11.43
2022-11-10T21:15:41.326Z,33.47
2022-11-10T21:18:30.020Z,37.43
2022-11-10T21:21:22.705Z,16.93
2022-11-10T21:24:11.113Z,23.30
2022-11-10T21:27:00.286Z,36.90
2022-11-10T21:29:48.621Z,62.47
2022-11-10T21:32:35.721Z,15.80
2022-11-10T21:35:23.150Z,13.53
2022-11-10T21:38:13.204Z,7.27
2022-11-10T21:41:00.096Z,41.83
2022-11-10T21:43:46.813Z,8.20
2022-11-10T21:46:35.021Z,10.73
2022-11-10T21:49:21.683Z,18.10
2022-11-10T21:52:08.852Z,6.17
2022-11-10T21:54:59.252Z,36.70
2022-11-10T21:57:46.452Z,12.00
2022-11-10T22:00:33.270Z,23.60
2022-11-10T22:03:21.757Z,26.83
2022-11-10T22:06:10.656Z,7.20
2022-11-10T22:08:57.484Z,57.60
2022-11-10T22:12:01.846Z,10.43
2022-11-10T22:15:06.138Z,13.40
2022-11-10T22:18:10.366Z,22.97
2022-11-10T22:20:58.826Z,4.97
2022-11-10T22:24:03.785Z,3.63
2022-11-10T22:26:50.861Z,4.70
2022-11-10T22:29:37.570Z,6.63
2022-11-10T22:32:25.044Z,3.60
2022-11-10T22:35:33.210Z,15.33
2022-11-10T22:38:21.841Z,5.13
2022-11-10T22:41:32.987Z,12.57
2022-11-10T22:44:24.743Z,4.20
2022-11-10T22:47:12.259Z,29.67
2022-11-10T22:49:59.299Z,57.00
2022-11-10T22:52:46.164Z,31.33
2022-11-10T22:55:35.150Z,9.77
2022-11-10T22:58:22.129Z,38.33
2022-11-10T23:01:10.557Z,24.73
2022-11-10T23:03:59.295Z,48.23
2022-11-10T23:06:46.573Z,39.13
2022-11-10T23:09:34.890Z,20.20
2022-11-10T23:12:23.604Z,8.53
2022-11-10T23:15:11.379Z,27.80
2022-11-10T23:18:02.442Z,16.20
2022-11-10T23:20:57.702Z,22.40
2022-11-10T23:23:45.745Z,7.30
2022-11-10T23:26:34.132Z,19.20
2022-11-10T23:29:22.878Z,3.80
2022-11-10T23:32:09.801Z,11.07
2022-11-10T23:34:56.764Z,11.47
2022-11-10T23:37:43.608Z,19.43
2022-11-10T23:40:30.555Z,8.83
2022-11-10T23:43:17.482Z,14.50
2022-11-10T23:46:08.095Z,24.17
2022-11-10T23:48:55.665Z,27.60
2022-11-10T23:51:43.017Z,36.03
2022-11-10T23:54:29.990Z,25.80
2022-11-10T23:57:58.946Z,8.40
